Terminal Aerodrome Forecast
Issued by NWS

Home | Current Version | Previous Version | Text Only | Print | Product List | Glossary On
Versions: 1 2 3 4 5 6 7 8 9 10 11 12 13 14
000
FTUS46 KLOX 251100
TAFOXR
TAF
KOXR 251132Z 2512/2612 VRB03KT 5SM BR SCT011
     FM251300 VRB03KT 5SM BR OVC011
     FM251600 VRB03KT P6SM SKC
     FM251800 27010KT P6SM SKC
     FM260500 VRB03KT P6SM SKC
     FM261000 VRB03KT 5SM BR OVC007=

USA.gov is the U.S. government's official web portal to all federal, state and local government web resources and services.